Time;durP1;ratioP1;P1;durP2;ratioP2;P2;SDS_P1;SDS_P2;PMS_P1;PMS_P2;Temp;Humidity;BMP_temperature;BMP_pressure;BME280_temperature;BME280_humidity;BME280_pressure;Samples;Min_cycle;Max_cycle;Signal;HPM_P1;HPM_P2
2021/08/05 00:01:46;;;;;;;6.32;4.28;;;13.60;99.90;;;;;;5128073;27;20419;-77
2021/08/05 00:04:12;;;;;;;;;;;13.50;99.90;;;;;;5118112;27;20053;-78
2021/08/05 00:06:38;;;;;;;6.07;4.30;;;13.50;99.90;;;;;;5123060;28;19928;-78
2021/08/05 00:09:05;;;;;;;5.82;3.83;;;13.50;99.90;;;;;;5124399;28;20114;-77
2021/08/05 00:11:32;;;;;;;6.28;4.40;;;13.50;99.90;;;;;;5119439;28;20043;-76
2021/08/05 00:13:58;;;;;;;6.05;4.38;;;13.40;99.90;;;;;;5118215;27;20039;-76
2021/08/05 00:16:24;;;;;;;6.80;4.90;;;13.40;99.90;;;;;;5126823;28;20458;-78
2021/08/05 00:18:50;;;;;;;7.10;4.78;;;13.40;99.90;;;;;;5127195;28;20122;-76
2021/08/05 00:21:20;;;;;;;7.32;5.05;;;13.40;99.90;;;;;;5114763;28;20455;-77
2021/08/05 00:23:46;;;;;;;5.70;4.28;;;13.40;99.90;;;;;;5115362;28;20039;-77
2021/08/05 00:26:13;;;;;;;6.50;4.63;;;13.40;99.90;;;;;;5126440;28;20036;-76
2021/08/05 00:28:40;;;;;;;6.57;4.75;;;13.30;99.90;;;;;;5122688;28;20040;-77
2021/08/05 00:31:05;;;;;;;7.25;4.70;;;13.40;99.90;;;;;;5126868;27;20097;-77
2021/08/05 00:33:32;;;;;;;7.30;5.13;;;13.30;99.90;;;;;;5118958;28;20046;-76
2021/08/05 00:35:58;;;;;;;;;;;13.30;99.90;;;;;;5123639;27;20036;-77
2021/08/05 00:38:24;;;;;;;7.72;5.18;;;13.20;99.90;;;;;;5128519;27;19915;-76
2021/08/05 00:40:52;;;;;;;8.05;5.22;;;13.20;99.90;;;;;;5129280;27;20042;-76
2021/08/05 00:43:18;;;;;;;7.68;5.00;;;13.20;99.90;;;;;;5121248;27;20087;-77
2021/08/05 00:45:44;;;;;;;7.30;5.28;;;13.20;99.90;;;;;;5129517;27;20146;-77
2021/08/05 00:48:09;;;;;;;7.32;5.05;;;13.10;99.90;;;;;;5133891;27;20582;-77
2021/08/05 00:50:35;;;;;;;6.32;4.93;;;13.10;99.90;;;;;;5133946;27;20039;-77
2021/08/05 00:53:01;;;;;;;7.30;5.35;;;13.10;99.90;;;;;;5129682;27;20130;-77
2021/08/05 00:55:27;;;;;;;;;;;13.00;99.90;;;;;;5129931;27;20046;-76
2021/08/05 00:57:53;;;;;;;6.32;4.75;;;13.00;99.90;;;;;;5129477;27;19919;-76
2021/08/05 01:00:22;;;;;;;7.38;5.25;;;13.00;99.90;;;;;;5128081;27;20035;-77
2021/08/05 01:03:03;;;;;;;9.48;5.72;;;13.00;99.90;;;;;;5128486;27;20042;-76
2021/08/05 01:05:38;;;;;;;9.48;5.80;;;13.00;99.90;;;;;;5131399;27;20036;-76
2021/08/05 01:08:18;;;;;;;7.80;5.93;;;12.90;99.90;;;;;;5123024;27;20070;-77
2021/08/05 01:11:08;;;;;;;9.25;5.82;;;12.90;99.90;;;;;;5122268;27;20123;-76
2021/08/05 01:13:39;;;;;;;8.30;5.95;;;12.80;99.90;;;;;;5128734;27;20046;-76
2021/08/05 01:16:12;;;;;;;9.27;6.25;;;12.80;99.90;;;;;;5123800;27;20046;-76
2021/08/05 01:18:40;;;;;;;7.68;5.45;;;12.80;99.90;;;;;;5124761;27;20151;-76
2021/08/05 01:21:20;;;;;;;8.65;5.57;;;12.80;99.90;;;;;;5124429;27;20034;-76
2021/08/05 01:23:57;;;;;;;11.00;6.22;;;12.70;99.90;;;;;;5125475;27;20038;-76
2021/08/05 01:26:58;;;;;;;8.82;5.78;;;12.70;99.90;;;;;;5126873;27;20039;-77
2021/08/05 01:29:24;;;;;;;8.88;5.35;;;12.70;99.90;;;;;;5034345;28;20435;-76
2021/08/05 01:31:50;;;;;;;9.98;6.55;;;12.60;99.90;;;;;;5113699;27;20047;-77
2021/08/05 01:34:17;;;;;;;7.57;5.70;;;12.60;99.90;;;;;;5119619;27;20035;-76
2021/08/05 01:36:46;;;;;;;7.88;5.90;;;12.60;99.90;;;;;;5118678;27;20035;-76
2021/08/05 01:39:13;;;;;;;10.63;6.25;;;12.50;99.90;;;;;;5129081;27;20488;-77
2021/08/05 01:41:39;;;;;;;10.80;6.65;;;12.50;99.90;;;;;;5130034;27;20043;-77
2021/08/05 01:44:07;;;;;;;9.30;6.20;;;12.50;99.90;;;;;;5132363;27;20047;-77
2021/08/05 01:46:33;;;;;;;8.70;5.75;;;12.40;99.90;;;;;;5129514;27;20043;-76
2021/08/05 01:48:59;;;;;;;;;;;12.40;99.90;;;;;;5129791;27;20031;-77
2021/08/05 01:51:27;;;;;;;9.35;6.45;;;12.40;99.90;;;;;;5134787;27;19968;-77
2021/08/05 01:53:53;;;;;;;9.88;6.30;;;12.40;99.90;;;;;;5130730;27;20051;-78
2021/08/05 01:56:21;;;;;;;8.93;5.70;;;12.40;99.90;;;;;;5131890;27;20135;-77
2021/08/05 01:58:47;;;;;;;9.70;6.43;;;12.40;99.90;;;;;;5124032;27;20438;-77
2021/08/05 02:01:16;;;;;;;8.60;6.10;;;12.40;99.90;;;;;;5131029;27;20131;-77
2021/08/05 02:03:46;;;;;;;9.70;6.45;;;12.30;99.90;;;;;;5122147;27;20031;-77
2021/08/05 02:06:19;;;;;;;9.45;6.07;;;12.30;99.90;;;;;;5126899;27;20535;-77
2021/08/05 02:08:57;;;;;;;9.07;6.60;;;12.30;99.90;;;;;;5118443;27;20036;-77
2021/08/05 02:11:24;;;;;;;8.48;6.53;;;12.30;99.90;;;;;;5128887;27;20039;-76
2021/08/05 02:13:51;;;;;;;10.18;6.65;;;12.30;99.90;;;;;;5123794;27;20063;-76
2021/08/05 02:16:18;;;;;;;10.50;7.05;;;12.30;99.90;;;;;;5128981;27;20035;-77
2021/08/05 02:18:46;;;;;;;11.90;7.55;;;12.30;99.90;;;;;;5113439;27;20042;-78
2021/08/05 02:21:16;;;;;;;8.98;6.72;;;12.30;99.90;;;;;;5129220;27;20046;-76
2021/08/05 02:23:43;;;;;;;8.88;6.40;;;12.30;99.90;;;;;;5123192;27;20069;-77
2021/08/05 02:26:09;;;;;;;9.95;6.80;;;12.20;99.90;;;;;;5130039;27;20036;-78
2021/08/05 02:28:35;;;;;;;10.57;7.15;;;12.20;99.90;;;;;;5123629;27;20043;-77
2021/08/05 02:31:03;;;;;;;10.70;7.35;;;12.20;99.90;;;;;;5118256;27;20608;-76
2021/08/05 02:33:30;;;;;;;;;;;12.10;99.90;;;;;;5126454;27;20043;-77
2021/08/05 02:35:56;;;;;;;12.43;6.93;;;12.10;99.90;;;;;;5122538;27;19922;-77
2021/08/05 02:38:23;;;;;;;9.35;7.20;;;12.00;99.90;;;;;;5126409;27;20387;-77
2021/08/05 02:40:50;;;;;;;12.68;7.85;;;12.00;99.90;;;;;;5128834;27;20042;-77
2021/08/05 02:43:17;;;;;;;10.82;6.82;;;12.00;99.90;;;;;;5132549;27;20476;-77
2021/08/05 02:45:45;;;;;;;11.10;7.22;;;11.90;99.90;;;;;;5131532;27;20035;-77
2021/08/05 02:48:12;;;;;;;9.82;6.97;;;11.90;99.90;;;;;;5143528;27;20381;-78
2021/08/05 02:50:39;;;;;;;9.02;6.32;;;11.90;99.90;;;;;;5130142;27;20039;-77
2021/08/05 02:53:06;;;;;;;8.95;6.57;;;11.90;99.90;;;;;;5119221;27;20051;-78
2021/08/05 02:55:32;;;;;;;;;;;11.90;99.90;;;;;;5132484;27;20115;-77
2021/08/05 02:57:58;;;;;;;11.10;7.15;;;11.80;99.90;;;;;;5130497;27;19961;-77
2021/08/05 03:00:24;;;;;;;10.50;6.93;;;11.80;99.90;;;;;;5118389;27;20043;-77
2021/08/05 03:02:51;;;;;;;12.20;7.93;;;11.70;99.90;;;;;;5126187;27;20035;-77
2021/08/05 03:05:17;;;;;;;;;;;11.70;99.90;;;;;;5132213;27;20039;-77
2021/08/05 03:07:44;;;;;;;12.60;7.30;;;11.70;99.90;;;;;;5130057;27;20010;-78
2021/08/05 03:10:12;;;;;;;11.52;7.15;;;11.70;99.90;;;;;;5130692;27;20068;-77
2021/08/05 03:12:38;;;;;;;11.75;7.13;;;11.70;99.90;;;;;;5118188;27;20042;-78
2021/08/05 03:15:05;;;;;;;11.60;6.95;;;11.60;99.90;;;;;;5120662;27;20399;-77
2021/08/05 03:17:31;;;;;;;10.75;7.78;;;11.60;99.90;;;;;;5125297;27;20038;-77
2021/08/05 03:19:57;;;;;;;12.82;8.10;;;11.60;99.90;;;;;;5113931;27;20128;-77
2021/08/05 03:22:22;;;;;;;10.55;7.05;;;11.50;99.90;;;;;;5125023;27;20503;-77
2021/08/05 03:24:48;;;;;;;13.18;7.65;;;11.50;99.90;;;;;;5125194;27;20114;-77
2021/08/05 03:27:14;;;;;;;10.60;7.22;;;11.50;99.90;;;;;;5113594;28;20032;-77
2021/08/05 03:29:40;;;;;;;10.43;6.72;;;11.50;99.90;;;;;;5118258;27;20055;-77
2021/08/05 03:32:05;;;;;;;11.90;7.47;;;11.40;99.90;;;;;;5118762;28;20400;-77
2021/08/05 03:34:32;;;;;;;10.80;7.32;;;11.40;99.90;;;;;;5128384;28;20041;-77
2021/08/05 03:36:58;;;;;;;9.63;6.40;;;11.30;99.90;;;;;;5118830;28;20532;-79
2021/08/05 03:39:23;;;;;;;10.25;6.60;;;11.30;99.90;;;;;;5119546;28;20123;-79
2021/08/05 03:41:50;;;;;;;11.13;6.97;;;11.30;99.90;;;;;;5130800;28;20030;-77
2021/08/05 03:44:16;;;;;;;14.57;9.15;;;11.30;99.90;;;;;;5132344;27;20035;-77
2021/08/05 03:46:42;;;;;;;14.35;8.18;;;11.30;99.90;;;;;;5129858;28;20108;-77
2021/08/05 03:49:08;;;;;;;13.00;8.07;;;11.30;99.90;;;;;;5130734;27;20122;-77
2021/08/05 03:51:35;;;;;;;13.73;7.78;;;11.30;99.90;;;;;;5126594;27;20182;-78
2021/08/05 03:54:02;;;;;;;10.55;7.43;;;11.30;99.90;;;;;;5122979;28;20117;-79
2021/08/05 03:56:28;;;;;;;13.00;7.80;;;11.30;99.90;;;;;;5128844;27;20399;-77
2021/08/05 03:58:53;;;;;;;11.82;8.30;;;11.30;99.90;;;;;;5119656;28;20118;-77
2021/08/05 04:01:19;;;;;;;13.82;8.98;;;11.30;99.90;;;;;;5130289;28;20031;-77
2021/08/05 04:03:49;;;;;;;14.85;9.68;;;11.30;99.90;;;;;;5130910;28;20089;-77
2021/08/05 04:06:15;;;;;;;15.18;9.60;;;11.30;99.90;;;;;;5118170;28;20506;-78
2021/08/05 04:08:41;;;;;;;17.08;10.32;;;11.40;99.90;;;;;;5131207;27;20042;-76
2021/08/05 04:11:06;;;;;;;12.52;9.18;;;11.40;99.90;;;;;;5123659;27;20066;-78
2021/08/05 04:13:32;;;;;;;15.82;10.23;;;11.40;99.90;;;;;;5133362;27;20080;-77
2021/08/05 04:15:58;;;;;;;18.15;10.98;;;11.50;99.90;;;;;;5120279;27;20038;-77
2021/08/05 04:18:24;;;;;;;16.65;11.73;;;11.50;99.90;;;;;;5124332;27;20054;-76
2021/08/05 04:20:49;;;;;;;16.60;10.77;;;11.50;99.90;;;;;;5134454;27;20476;-76
2021/08/05 04:23:15;;;;;;;18.98;12.07;;;11.60;99.90;;;;;;5133935;27;20027;-79
2021/08/05 04:25:42;;;;;;;18.58;12.73;;;11.60;99.90;;;;;;5133837;27;20063;-78
2021/08/05 04:28:07;;;;;;;20.00;11.85;;;11.70;99.90;;;;;;5129751;27;20069;-78
2021/08/05 04:30:36;;;;;;;18.63;12.20;;;11.70;99.90;;;;;;5131958;27;20062;-77
2021/08/05 04:33:01;;;;;;;19.80;12.07;;;11.70;99.90;;;;;;5131526;27;20062;-77
2021/08/05 04:35:27;;;;;;;20.30;12.82;;;11.70;99.90;;;;;;5132765;27;20035;-77
2021/08/05 04:38:01;;;;;;;19.45;11.82;;;11.80;99.90;;;;;;5119317;27;20473;-76
2021/08/05 04:40:29;;;;;;;20.17;12.82;;;11.90;99.90;;;;;;5118315;27;20377;-77
2021/08/05 04:42:56;;;;;;;20.70;14.02;;;11.90;99.90;;;;;;5121547;27;20102;-77
2021/08/05 04:45:22;;;;;;;24.60;16.80;;;12.00;99.90;;;;;;5126894;27;20127;-77
2021/08/05 04:47:50;;;;;;;24.05;15.65;;;12.10;99.90;;;;;;5129051;27;20054;-78
2021/08/05 04:50:17;;;;;;;22.30;15.02;;;12.30;99.90;;;;;;5135567;27;20068;-77
2021/08/05 04:52:43;;;;;;;21.70;15.43;;;12.30;99.90;;;;;;5121632;27;20110;-76
2021/08/05 04:55:09;;;;;;;21.42;14.88;;;12.50;99.90;;;;;;5125707;27;20048;-79
2021/08/05 04:57:51;;;;;;;22.65;16.92;;;12.70;99.90;;;;;;5127718;27;20118;-79
2021/08/05 05:00:26;;;;;;;22.02;15.60;;;12.90;99.90;;;;;;5127931;27;20403;-77
2021/08/05 05:02:53;;;;;;;24.23;17.33;;;13.10;99.90;;;;;;5125641;27;20031;-78
2021/08/05 05:05:21;;;;;;;23.88;16.98;;;13.30;99.90;;;;;;5128416;27;20111;-77
2021/08/05 05:07:47;;;;;;;27.58;17.02;;;13.50;99.90;;;;;;5115754;27;20063;-77
2021/08/05 05:10:13;;;;;;;;;;;13.80;99.90;;;;;;5129191;27;20566;-78
2021/08/05 05:12:39;;;;;;;24.55;16.45;;;13.90;99.90;;;;;;5122173;27;19969;-77
2021/08/05 05:15:06;;;;;;;23.30;16.77;;;14.10;99.90;;;;;;5120585;27;20371;-77
2021/08/05 05:17:32;;;;;;;23.98;16.73;;;14.30;99.90;;;;;;5130959;27;20062;-77
2021/08/05 05:19:58;;;;;;;23.42;16.83;;;14.50;99.90;;;;;;5129334;27;20073;-77
2021/08/05 05:22:24;;;;;;;;;;;14.70;99.90;;;;;;5115626;27;20114;-78
2021/08/05 05:24:50;;;;;;;17.70;14.05;;;14.90;99.90;;;;;;5119867;27;20368;-77
2021/08/05 05:27:15;;;;;;;22.88;15.02;;;15.10;99.90;;;;;;5114907;27;20488;-77
2021/08/05 05:29:41;;;;;;;22.48;15.02;;;15.20;99.90;;;;;;5123857;27;20437;-77
2021/08/05 05:32:08;;;;;;;;;;;15.40;99.90;;;;;;5120185;27;20114;-77
2021/08/05 05:34:36;;;;;;;22.38;15.45;;;15.50;99.90;;;;;;5133341;27;19948;-76
2021/08/05 05:37:02;;;;;;;19.73;15.43;;;15.60;99.90;;;;;;5132597;27;20058;-77
2021/08/05 05:39:29;;;;;;;22.13;15.57;;;15.70;99.90;;;;;;5128717;27;20042;-77
2021/08/05 05:41:55;;;;;;;20.55;15.10;;;15.90;99.90;;;;;;5132560;27;20066;-77
2021/08/05 05:44:21;;;;;;;20.13;14.25;;;16.00;99.90;;;;;;5127695;27;20471;-76
2021/08/05 05:46:47;;;;;;;;;;;16.20;99.90;;;;;;5119169;27;20035;-76
2021/08/05 05:49:13;;;;;;;23.42;16.15;;;16.30;99.90;;;;;;5120725;27;20384;-76
2021/08/05 05:51:39;;;;;;;19.33;15.40;;;16.50;99.90;;;;;;5130906;27;20421;-77
2021/08/05 05:54:05;;;;;;;;;;;16.60;99.90;;;;;;5126999;27;20050;-77
2021/08/05 05:56:33;;;;;;;19.27;14.35;;;16.70;99.90;;;;;;5123786;27;19971;-76
2021/08/05 05:59:00;;;;;;;21.98;13.90;;;16.80;99.90;;;;;;5125595;27;20040;-77
2021/08/05 06:01:27;;;;;;;18.60;13.88;;;16.80;99.90;;;;;;5130466;27;20494;-77
2021/08/05 06:03:52;;;;;;;;;;;16.90;99.90;;;;;;5127694;27;20122;-78
2021/08/05 06:06:20;;;;;;;18.33;14.07;;;17.00;99.90;;;;;;5125298;27;20320;-77
2021/08/05 06:08:45;;;;;;;;;;;17.00;99.90;;;;;;5134640;27;20114;-77
2021/08/05 06:11:11;;;;;;;19.38;14.05;;;17.00;99.90;;;;;;5118751;27;20413;-77
2021/08/05 06:13:37;;;;;;;;;;;17.10;99.90;;;;;;5123164;27;20114;-76
2021/08/05 06:16:03;;;;;;;19.15;14.52;;;17.10;99.90;;;;;;5125900;27;20418;-78
2021/08/05 06:18:28;;;;;;;;;;;17.10;99.90;;;;;;5127050;27;20503;-78
2021/08/05 06:20:54;;;;;;;18.45;14.10;;;17.20;99.90;;;;;;5119578;27;19916;-78
2021/08/05 06:23:20;;;;;;;14.65;12.35;;;17.20;99.90;;;;;;5124512;27;20410;-80
2021/08/05 06:25:46;;;;;;;;;;;17.30;99.90;;;;;;5126038;27;20566;-78
2021/08/05 06:28:11;;;;;;;16.02;12.10;;;17.30;99.90;;;;;;5130368;27;19915;-80
2021/08/05 06:30:37;;;;;;;;;;;17.40;99.90;;;;;;5122620;27;20059;-80
2021/08/05 06:33:03;;;;;;;14.07;11.00;;;17.40;99.90;;;;;;5131447;27;20363;-79
2021/08/05 06:35:29;;;;;;;13.85;11.68;;;17.50;99.90;;;;;;5123501;27;20509;-77
2021/08/05 06:37:55;;;;;;;;;;;17.50;99.90;;;;;;5133027;27;20123;-77
2021/08/05 06:40:21;;;;;;;15.85;12.10;;;17.60;99.90;;;;;;5125485;27;20351;-80
2021/08/05 06:42:46;;;;;;;;;;;17.60;99.90;;;;;;5122721;27;20649;-77
2021/08/05 06:45:13;;;;;;;14.00;10.98;;;17.70;99.90;;;;;;5125393;27;19926;-76
2021/08/05 06:47:41;;;;;;;14.55;11.23;;;17.80;99.90;;;;;;5133443;27;20084;-77
2021/08/05 06:50:11;;;;;;;13.30;9.70;;;17.80;99.90;;;;;;5131339;27;20054;-77
2021/08/05 06:52:37;;;;;;;13.68;10.95;;;17.80;99.90;;;;;;5113325;28;20044;-76
2021/08/05 06:55:03;;;;;;;;;;;17.80;99.90;;;;;;5122167;27;20061;-78
2021/08/05 06:57:29;;;;;;;12.35;9.70;;;17.80;99.90;;;;;;5130441;27;19915;-76
2021/08/05 06:59:54;;;;;;;;;;;17.80;99.90;;;;;;5130647;27;20043;-77
2021/08/05 07:02:20;;;;;;;13.30;9.63;;;17.80;99.90;;;;;;5121072;27;19941;-77
2021/08/05 07:04:46;;;;;;;;;;;17.90;99.90;;;;;;5129862;27;20035;-78
2021/08/05 07:07:12;;;;;;;13.07;10.50;;;17.90;99.90;;;;;;5123187;27;19920;-76
2021/08/05 07:09:38;;;;;;;;;;;17.90;99.90;;;;;;5123291;27;20063;-81
2021/08/05 07:12:04;;;;;;;13.38;9.18;;;17.90;99.90;;;;;;5131916;27;20265;-80
2021/08/05 07:14:29;;;;;;;;;;;17.90;99.90;;;;;;5126781;27;20028;-80
2021/08/05 07:16:55;;;;;;;11.00;9.52;;;17.90;99.90;;;;;;5132328;27;19929;-78
2021/08/05 07:19:21;;;;;;;;;;;17.90;99.90;;;;;;5115338;27;20065;-79
2021/08/05 07:21:47;;;;;;;13.10;8.93;;;17.90;99.90;;;;;;5118669;27;19919;-75
2021/08/05 07:24:14;;;;;;;;;;;18.00;99.90;;;;;;5122905;27;20042;-75
2021/08/05 07:26:41;;;;;;;11.02;9.10;;;18.20;99.90;;;;;;5128406;27;19928;-75
2021/08/05 07:29:07;;;;;;;11.00;8.15;;;18.40;99.90;;;;;;5126824;27;20031;-75
2021/08/05 07:31:33;;;;;;;10.80;8.60;;;18.60;99.90;;;;;;5127429;27;20122;-75
2021/08/05 07:33:58;;;;;;;;;;;18.80;99.90;;;;;;5126967;27;20154;-75
2021/08/05 07:36:26;;;;;;;9.35;7.40;;;18.80;99.90;;;;;;5126766;28;20336;-75
2021/08/05 07:38:52;;;;;;;9.25;7.15;;;18.90;99.90;;;;;;5129520;27;20110;-76
2021/08/05 07:41:18;;;;;;;10.13;6.90;;;19.00;99.90;;;;;;5129450;27;20422;-76
2021/08/05 07:43:44;;;;;;;;;;;19.20;99.90;;;;;;5130863;28;20083;-75
2021/08/05 07:46:10;;;;;;;6.00;4.70;;;19.30;99.90;;;;;;5119518;27;19916;-75
2021/08/05 07:48:36;;;;;;;5.03;4.28;;;19.40;99.90;;;;;;5121465;27;20046;-75
2021/08/05 07:51:02;;;;;;;5.65;4.47;;;19.40;99.90;;;;;;5126958;27;20039;-76
2021/08/05 07:53:28;;;;;;;;;;;19.50;99.90;;;;;;5121437;27;20629;-75
2021/08/05 07:55:53;;;;;;;6.55;4.95;;;19.60;99.90;;;;;;5127931;27;19919;-76
2021/08/05 07:58:19;;;;;;;;;;;19.70;99.90;;;;;;5133594;27;20035;-76
2021/08/05 08:00:45;;;;;;;6.78;4.70;;;19.70;99.90;;;;;;5135038;27;19919;-75
2021/08/05 08:03:11;;;;;;;;;;;19.80;99.90;;;;;;5131247;27;20031;-75
2021/08/05 08:05:40;;;;;;;8.13;5.32;;;19.80;99.90;;;;;;5133240;27;19915;-75
2021/08/05 08:08:07;;;;;;;8.02;5.43;;;20.00;99.90;;;;;;5131296;27;20043;-75
2021/08/05 08:10:35;;;;;;;6.90;5.10;;;20.10;99.90;;;;;;5136278;27;20047;-75
2021/08/05 08:13:01;;;;;;;6.47;4.90;;;20.20;99.90;;;;;;5122672;27;20468;-76
2021/08/05 08:15:27;;;;;;;6.60;4.75;;;20.30;99.90;;;;;;5125793;27;20035;-76
2021/08/05 08:17:53;;;;;;;8.20;5.70;;;20.30;99.90;;;;;;5125430;27;20044;-75
2021/08/05 08:20:20;;;;;;;7.32;5.05;;;20.30;99.90;;;;;;5133465;27;20058;-74
2021/08/05 08:22:47;;;;;;;5.40;4.20;;;20.40;99.90;;;;;;5122982;27;20036;-74
2021/08/05 08:25:14;;;;;;;5.95;4.40;;;20.50;99.90;;;;;;5132921;27;20039;-74
2021/08/05 08:27:40;;;;;;;5.03;4.25;;;20.60;99.90;;;;;;5122983;27;20046;-77
2021/08/05 08:30:09;;;;;;;7.57;4.38;;;20.60;99.90;;;;;;5108349;27;20385;-75
2021/08/05 08:32:34;;;;;;;5.75;4.38;;;20.70;99.90;;;;;;5107748;27;20037;-75
2021/08/05 08:35:00;;;;;;;6.78;4.32;;;20.60;99.90;;;;;;5123652;27;20035;-75
2021/08/05 08:37:26;;;;;;;7.43;4.43;;;20.60;99.90;;;;;;5119846;27;20039;-75
2021/08/05 08:39:52;;;;;;;7.00;4.22;;;20.60;99.90;;;;;;5134882;27;20080;-75
2021/08/05 08:42:18;;;;;;;;;;;20.60;99.90;;;;;;5127410;27;20137;-75
2021/08/05 08:44:44;;;;;;;5.57;3.80;;;20.70;99.90;;;;;;5126417;27;20159;-75
2021/08/05 08:47:11;;;;;;;5.00;3.90;;;20.70;99.90;;;;;;5125483;27;20047;-75
2021/08/05 08:49:38;;;;;;;5.60;4.45;;;20.80;99.90;;;;;;5134397;27;20076;-75
2021/08/05 08:52:05;;;;;;;5.00;3.65;;;20.90;99.90;;;;;;5138101;27;20059;-75
2021/08/05 08:54:32;;;;;;;4.63;3.65;;;20.90;99.90;;;;;;5130902;28;20487;-74
2021/08/05 08:56:59;;;;;;;5.03;4.10;;;21.00;99.90;;;;;;5127120;27;20032;-75
2021/08/05 08:59:25;;;;;;;6.05;4.88;;;21.10;99.90;;;;;;5122443;28;20043;-74
2021/08/05 09:01:52;;;;;;;5.60;4.47;;;21.10;99.90;;;;;;5130234;27;20027;-75
2021/08/05 09:04:19;;;;;;;5.80;3.95;;;21.10;99.90;;;;;;5098251;28;20039;-75
2021/08/05 09:06:48;;;;;;;5.85;4.47;;;21.00;99.90;;;;;;5125177;28;20441;-73
2021/08/05 09:09:15;;;;;;;6.93;5.13;;;21.10;99.90;;;;;;5135596;27;20058;-73
2021/08/05 09:11:41;;;;;;;5.82;4.53;;;21.10;99.90;;;;;;5121824;28;20039;-74
2021/08/05 09:14:07;;;;;;;7.28;6.10;;;21.10;99.90;;;;;;5132649;27;20403;-74
2021/08/05 09:16:33;;;;;;;;;;;21.20;99.90;;;;;;5110350;28;20035;-75
2021/08/05 09:19:08;;;;;;;7.55;6.05;;;21.30;99.90;;;;;;5133025;28;20038;-75
2021/08/05 09:21:35;;;;;;;7.47;5.45;;;21.40;99.90;;;;;;5124458;28;20039;-75
2021/08/05 09:24:06;;;;;;;;;;;21.40;99.90;;;;;;5129011;27;20035;-75
2021/08/05 09:26:43;;;;;;;6.75;5.40;;;21.50;99.90;;;;;;5128954;27;19916;-74
2021/08/05 09:29:17;;;;;;;7.63;6.35;;;21.60;99.90;;;;;;5123399;27;20038;-74
2021/08/05 09:31:55;;;;;;;8.43;6.22;;;21.70;99.90;;;;;;5134942;28;20046;-78
2021/08/05 09:34:40;;;;;;;8.55;6.72;;;21.80;99.90;;;;;;5136295;27;20118;-74
2021/08/05 09:37:20;;;;;;;8.18;6.32;;;21.80;99.90;;;;;;5142855;27;20061;-75
2021/08/05 09:40:00;;;;;;;6.72;5.82;;;21.90;99.90;;;;;;5120059;28;20048;-75
2021/08/05 09:42:31;;;;;;;5.90;5.07;;;21.90;99.90;;;;;;5140654;27;20062;-74
2021/08/05 09:44:57;;;;;;;7.50;5.10;;;22.00;99.90;;;;;;5119803;28;20519;-73
2021/08/05 09:47:22;;;;;;;6.95;4.75;;;22.10;99.90;;;;;;5126316;27;20073;-74
2021/08/05 09:49:51;;;;;;;5.57;4.72;;;22.10;99.90;;;;;;5128181;28;20604;-73
2021/08/05 09:52:31;;;;;;;4.67;3.80;;;22.20;99.90;;;;;;5083436;27;1103179;-74
2021/08/05 09:54:59;;;;;;;4.97;4.28;;;22.40;99.90;;;;;;5116310;27;20341;-74
2021/08/05 09:57:30;;;;;;;5.47;4.55;;;22.40;99.90;;;;;;5118645;27;20035;-74
2021/08/05 10:00:09;;;;;;;6.20;3.92;;;22.40;99.90;;;;;;5121218;27;20047;-75
2021/08/05 10:02:45;;;;;;;4.35;3.85;;;22.50;99.90;;;;;;5119618;27;20043;-75
2021/08/05 10:05:22;;;;;;;4.50;3.45;;;22.50;99.90;;;;;;5123950;27;20126;-75
2021/08/05 10:07:53;;;;;;;4.88;3.97;;;22.70;99.90;;;;;;5115921;27;20043;-75
2021/08/05 10:10:23;;;;;;;4.97;3.60;;;22.80;99.90;;;;;;5119591;27;20043;-75
2021/08/05 10:12:55;;;;;;;4.90;3.65;;;22.80;99.90;;;;;;5122339;27;20040;-74
2021/08/05 10:15:21;;;;;;;5.57;3.08;;;22.80;99.90;;;;;;5120034;27;20054;-74
2021/08/05 10:17:53;;;;;;;4.90;3.35;;;22.80;99.90;;;;;;5130092;27;20035;-75
2021/08/05 10:20:21;;;;;;;5.15;3.63;;;22.80;99.90;;;;;;5120175;27;20039;-74
2021/08/05 10:22:49;;;;;;;4.43;2.90;;;22.70;99.90;;;;;;5119614;27;20495;-75
2021/08/05 10:25:19;;;;;;;4.85;3.50;;;22.70;99.90;;;;;;5124117;27;20432;-75
2021/08/05 10:27:46;;;;;;;4.32;3.17;;;22.80;99.90;;;;;;5121201;27;20038;-74
2021/08/05 10:30:15;;;;;;;3.00;2.42;;;22.80;99.90;;;;;;5122308;27;20035;-75
2021/08/05 10:32:41;;;;;;;4.07;3.17;;;22.80;99.90;;;;;;5124501;27;20038;-74
2021/08/05 10:35:09;;;;;;;3.25;2.72;;;23.00;99.90;;;;;;5121329;27;20069;-75
2021/08/05 10:37:36;;;;;;;4.82;3.85;;;23.00;99.90;;;;;;5118069;27;20046;-75
2021/08/05 10:40:05;;;;;;;5.35;3.78;;;23.10;99.90;;;;;;5113714;27;20066;-75
2021/08/05 10:42:31;;;;;;;4.68;3.88;;;23.10;99.90;;;;;;5119448;27;20095;-74
2021/08/05 10:44:57;;;;;;;4.90;3.90;;;23.20;99.90;;;;;;5117867;27;20685;-75
2021/08/05 10:47:25;;;;;;;4.63;3.97;;;23.20;99.90;;;;;;5117182;27;20038;-74
2021/08/05 10:49:54;;;;;;;5.90;3.97;;;23.30;99.90;;;;;;5119181;27;20088;-75
2021/08/05 10:52:35;;;;;;;4.70;4.20;;;23.30;99.90;;;;;;5130425;27;20091;-75
2021/08/05 10:55:07;;;;;;;5.93;4.65;;;23.30;99.90;;;;;;5124432;27;20521;-74
2021/08/05 10:57:33;;;;;;;4.93;4.35;;;23.30;99.90;;;;;;5124702;27;20545;-75
2021/08/05 11:00:09;;;;;;;4.90;3.67;;;23.30;99.90;;;;;;5129867;27;20043;-75
2021/08/05 11:02:51;;;;;;;3.72;3.30;;;23.30;99.90;;;;;;5126647;27;20692;-75
2021/08/05 11:05:23;;;;;;;6.05;3.97;;;23.40;99.90;;;;;;5124602;27;20049;-74
2021/08/05 11:08:09;;;;;;;5.03;3.50;;;23.60;99.90;;;;;;5113085;27;20043;-74
2021/08/05 11:10:37;;;;;;;3.75;2.90;;;23.80;99.90;;;;;;5092518;27;20054;-74
2021/08/05 11:13:09;;;;;;;3.95;2.97;;;24.10;98.10;;;;;;5116944;27;20279;-75
2021/08/05 11:15:34;;;;;;;4.60;2.72;;;24.00;95.20;;;;;;5118133;27;20027;-75
2021/08/05 11:18:18;;;;;;;5.15;2.88;;;24.10;93.70;;;;;;5120430;27;20043;-75
2021/08/05 11:20:51;;;;;;;3.33;2.60;;;24.20;94.30;;;;;;5130164;27;20043;-75
2021/08/05 11:23:27;;;;;;;2.75;2.40;;;24.30;92.10;;;;;;5120247;27;20031;-75
2021/08/05 11:25:53;;;;;;;5.68;3.00;;;24.40;92.30;;;;;;5122105;27;20047;-75
2021/08/05 11:28:45;;;;;;;3.25;2.40;;;24.50;90.10;;;;;;5128183;27;20031;-75
2021/08/05 11:31:12;;;;;;;7.72;2.65;;;24.40;83.20;;;;;;5121530;27;20082;-75
2021/08/05 11:33:38;;;;;;;6.72;2.50;;;24.40;88.60;;;;;;5123965;27;20066;-75
2021/08/05 11:36:23;;;;;;;5.43;2.75;;;24.50;89.70;;;;;;5118918;27;20085;-75
2021/08/05 11:39:26;;;;;;;4.78;2.97;;;24.80;91.40;;;;;;5119809;27;20166;-75
2021/08/05 11:42:14;;;;;;;5.13;3.00;;;25.00;84.10;;;;;;5116667;27;20059;-76
2021/08/05 11:45:09;;;;;;;5.40;3.38;;;25.00;85.20;;;;;;5119804;27;20040;-75
2021/08/05 11:47:35;;;;;;;4.57;2.70;;;25.10;86.90;;;;;;5112418;27;20054;-75
2021/08/05 11:50:15;;;;;;;5.30;2.90;;;25.10;87.80;;;;;;5120809;27;20043;-75
2021/08/05 11:52:46;;;;;;;4.53;2.70;;;25.20;86.20;;;;;;5116197;27;20540;-76
2021/08/05 11:55:28;;;;;;;3.85;2.45;;;25.40;81.30;;;;;;5121274;27;20494;-74
2021/08/05 11:57:57;;;;;;;4.53;2.65;;;25.40;82.40;;;;;;5121244;27;20039;-74
2021/08/05 12:00:24;;;;;;;4.13;2.67;;;25.50;76.40;;;;;;5123023;27;20118;-74
2021/08/05 12:02:52;;;;;;;4.63;2.60;;;25.50;73.20;;;;;;5123497;27;20438;-74
2021/08/05 12:05:21;;;;;;;3.75;2.55;;;25.40;72.60;;;;;;5125997;27;20073;-74
2021/08/05 12:07:48;;;;;;;3.60;2.83;;;25.30;74.20;;;;;;5115540;27;20027;-74
2021/08/05 12:10:43;;;;;;;6.22;2.70;;;25.40;78.30;;;;;;5121020;27;20112;-74
2021/08/05 12:13:15;;;;;;;3.28;2.70;;;25.60;79.40;;;;;;5079080;27;20059;-74
2021/08/05 12:15:44;;;;;;;4.35;3.58;;;25.60;77.20;;;;;;5120249;27;20464;-74
2021/08/05 12:18:20;;;;;;;4.20;2.90;;;25.70;78.00;;;;;;5120327;27;20069;-75
2021/08/05 12:21:03;;;;;;;3.55;2.83;;;25.80;79.80;;;;;;5100445;28;20035;-75
2021/08/05 12:23:41;;;;;;;3.97;3.17;;;25.80;78.40;;;;;;5121737;27;20492;-75
2021/08/05 12:28:41;;;;;;;4.30;3.30;;;26.20;81.80;;;;;;5115715;27;20063;-74
2021/08/05 12:31:14;;;;;;;3.53;3.00;;;26.50;80.10;;;;;;5123723;27;20375;-74
2021/08/05 12:33:42;;;;;;;3.97;2.78;;;26.60;80.90;;;;;;5122718;27;20043;-74
2021/08/05 12:36:19;;;;;;;3.15;2.58;;;26.80;81.90;;;;;;5122711;27;20046;-74
2021/08/05 12:38:52;;;;;;;3.30;2.50;;;26.80;78.60;;;;;;5121604;27;20513;-75
2021/08/05 12:41:39;;;;;;;3.38;2.40;;;26.50;78.50;;;;;;5125962;27;20118;-75
2021/08/05 12:44:19;;;;;;;2.95;2.20;;;26.30;72.00;;;;;;5128203;27;20114;-75
2021/08/05 12:46:48;;;;;;;2.85;2.20;;;26.30;72.40;;;;;;5124570;27;20031;-75
2021/08/05 12:49:15;;;;;;;4.07;2.42;;;26.50;68.20;;;;;;5126280;27;20117;-75
2021/08/05 12:51:41;;;;;;;4.30;2.30;;;26.30;67.00;;;;;;5125384;27;20032;-75
2021/08/05 12:54:14;;;;;;;4.78;2.47;;;26.10;70.30;;;;;;5125229;27;20092;-75
2021/08/05 12:56:51;;;;;;;3.47;2.40;;;25.90;71.40;;;;;;5122459;27;20063;-75
2021/08/05 12:59:21;;;;;;;3.08;2.20;;;25.80;70.50;;;;;;5128407;27;20038;-75
2021/08/05 13:02:07;;;;;;;3.22;2.80;;;25.90;72.60;;;;;;5123468;27;20057;-75